AFL765 ULAA-UUEE
Flight info
| Callsign | AFL765 |
|---|---|
| Flight time | 1h 27m |
| Altitude | 34000 |
| Route | ABELU3K ABELU T825 UREPI P65 ROMTA ROMTA3E |
| Aircraft | B738/M-SDE2E3FGHIRWXY/LB1 |
Departure
| Time | 2026-04-22 09:52 |
|---|---|
| Airport | Talagi Airport (ULAA) |
Arrival
| Time | 2026-04-22 11:19 |
|---|---|
| Airport | Sheremetyevo International Airport (UUEE) |
| Time | Latitude | Longitude | Altitude | Speed | Heading |
|---|---|---|---|---|---|
| 2026-04-22 09:29 | 64.59634 | 40.71475 | 70 ft | 0 kts | 186° |
| 2026-04-22 09:42 | 64.59649 | 40.71479 | 71 ft | 2 kts | 188° |
| 2026-04-22 09:42 | 64.59664 | 40.71484 | 71 ft | 2 kts | 202° |
| 2026-04-22 09:42 | 64.59672 | 40.71513 | 71 ft | 2 kts | 264° |
| 2026-04-22 09:42 | 64.59672 | 40.71539 | 71 ft | 0 kts | 278° |
| 2026-04-22 09:45 | 64.59672 | 40.71538 | 71 ft | 0 kts | 278° |
| 2026-04-22 09:46 | 64.59673 | 40.71526 | 71 ft | 3 kts | 277° |
| 2026-04-22 09:46 | 64.59678 | 40.71422 | 71 ft | 6 kts | 276° |
| 2026-04-22 09:46 | 64.59682 | 40.71355 | 71 ft | 6 kts | 277° |
| 2026-04-22 09:46 | 64.59696 | 40.71269 | 71 ft | 6 kts | 329° |
| 2026-04-22 09:47 | 64.59735 | 40.71264 | 71 ft | 6 kts | 2° |
| 2026-04-22 09:47 | 64.59775 | 40.71273 | 71 ft | 5 kts | 2° |
| 2026-04-22 09:47 | 64.59834 | 40.71290 | 71 ft | 12 kts | 6° |
| 2026-04-22 09:47 | 64.59900 | 40.71307 | 71 ft | 6 kts | 7° |
| 2026-04-22 09:48 | 64.59948 | 40.71320 | 71 ft | 10 kts | 7° |
| 2026-04-22 09:48 | 64.60005 | 40.71382 | 71 ft | 9 kts | 76° |
| 2026-04-22 09:48 | 64.60002 | 40.71556 | 71 ft | 15 kts | 96° |
| 2026-04-22 09:48 | 64.59991 | 40.71793 | 71 ft | 15 kts | 97° |
| 2026-04-22 09:49 | 64.59976 | 40.72092 | 71 ft | 20 kts | 96° |
| 2026-04-22 09:49 | 64.59962 | 40.72400 | 71 ft | 19 kts | 98° |
| 2026-04-22 09:49 | 64.59946 | 40.72693 | 71 ft | 18 kts | 97° |
| 2026-04-22 09:49 | 64.59931 | 40.72998 | 71 ft | 20 kts | 96° |
| 2026-04-22 09:50 | 64.59914 | 40.73354 | 71 ft | 23 kts | 96° |
| 2026-04-22 09:50 | 64.59896 | 40.73709 | 71 ft | 22 kts | 97° |
| 2026-04-22 09:50 | 64.59880 | 40.74044 | 71 ft | 14 kts | 97° |
| 2026-04-22 09:50 | 64.59856 | 40.74156 | 71 ft | 7 kts | 127° |
| 2026-04-22 09:51 | 64.59856 | 40.74200 | 71 ft | 3 kts | 43° |
| 2026-04-22 09:51 | 64.59874 | 40.74173 | 71 ft | 4 kts | 276° |
| 2026-04-22 09:51 | 64.59879 | 40.74075 | 71 ft | 13 kts | 277° |
| 2026-04-22 09:51 | 64.59913 | 40.73403 | 71 ft | 73 kts | 277° |
| 2026-04-22 09:52 | 64.59993 | 40.71760 | 71 ft | 129 kts | 276° |
| 2026-04-22 09:52 | 64.60085 | 40.69429 | 397 ft | 147 kts | 272° |
| 2026-04-22 09:52 | 64.60140 | 40.67131 | 1195 ft | 140 kts | 273° |
| 2026-04-22 09:52 | 64.60189 | 40.64786 | 1710 ft | 151 kts | 276° |
| 2026-04-22 09:53 | 64.60290 | 40.62231 | 2089 ft | 169 kts | 278° |
| 2026-04-22 09:53 | 64.60407 | 40.59304 | 2392 ft | 188 kts | 278° |
| 2026-04-22 09:53 | 64.60534 | 40.56215 | 2889 ft | 196 kts | 280° |
| 2026-04-22 09:53 | 64.60724 | 40.52977 | 3318 ft | 211 kts | 282° |
| 2026-04-22 09:54 | 64.60950 | 40.49461 | 3745 ft | 225 kts | 282° |
| 2026-04-22 09:54 | 64.61189 | 40.45777 | 4328 ft | 237 kts | 279° |
| 2026-04-22 09:54 | 64.60970 | 40.41828 | 4788 ft | 259 kts | 251° |
| 2026-04-22 09:54 | 64.59782 | 40.38585 | 5478 ft | 273 kts | 216° |
| 2026-04-22 09:55 | 64.58020 | 40.36952 | 6382 ft | 276 kts | 197° |
| 2026-04-22 09:55 | 64.56116 | 40.36236 | 7171 ft | 277 kts | 192° |
| 2026-04-22 09:55 | 64.54208 | 40.35576 | 7936 ft | 277 kts | 193° |
| 2026-04-22 09:55 | 64.52297 | 40.34793 | 8591 ft | 282 kts | 195° |
| 2026-04-22 09:56 | 64.50349 | 40.33910 | 9219 ft | 287 kts | 194° |
| 2026-04-22 09:56 | 64.48367 | 40.33107 | 9842 ft | 293 kts | 193° |
| 2026-04-22 09:56 | 64.46305 | 40.32398 | 10250 ft | 307 kts | 192° |
| 2026-04-22 09:56 | 64.44127 | 40.31758 | 10560 ft | 324 kts | 191° |
| 2026-04-22 09:57 | 64.41832 | 40.31176 | 10869 ft | 339 kts | 189° |
| 2026-04-22 09:57 | 64.39446 | 40.30621 | 11361 ft | 347 kts | 189° |
| 2026-04-22 09:57 | 64.37032 | 40.30099 | 12018 ft | 350 kts | 188° |
| 2026-04-22 09:57 | 64.34680 | 40.29609 | 12665 ft | 352 kts | 188° |
| 2026-04-22 09:58 | 64.34079 | 40.29485 | 12828 ft | 353 kts | 188° |
| 2026-04-22 09:58 | 64.31619 | 40.28986 | 13497 ft | 356 kts | 188° |
| 2026-04-22 09:58 | 64.29183 | 40.28498 | 14161 ft | 358 kts | 188° |
| 2026-04-22 09:58 | 64.26700 | 40.28007 | 14880 ft | 359 kts | 189° |
| 2026-04-22 09:59 | 64.24209 | 40.27506 | 15594 ft | 360 kts | 189° |
| 2026-04-22 09:59 | 64.21706 | 40.26952 | 16278 ft | 361 kts | 189° |
| 2026-04-22 09:59 | 64.19195 | 40.26418 | 16902 ft | 364 kts | 189° |
| 2026-04-22 09:59 | 64.16656 | 40.25895 | 17505 ft | 367 kts | 189° |
| 2026-04-22 10:00 | 64.14102 | 40.25382 | 18099 ft | 370 kts | 189° |
| 2026-04-22 10:00 | 64.11524 | 40.24874 | 18682 ft | 373 kts | 189° |
| 2026-04-22 10:00 | 64.08929 | 40.24370 | 19250 ft | 376 kts | 189° |
| 2026-04-22 10:00 | 64.06315 | 40.23868 | 19809 ft | 378 kts | 189° |
| 2026-04-22 10:01 | 64.03681 | 40.23326 | 20355 ft | 381 kts | 190° |
| 2026-04-22 10:01 | 64.01040 | 40.22798 | 20882 ft | 383 kts | 190° |
| 2026-04-22 10:01 | 63.98367 | 40.22292 | 21398 ft | 386 kts | 190° |
| 2026-04-22 10:01 | 63.95684 | 40.21804 | 21899 ft | 389 kts | 190° |
| 2026-04-22 10:02 | 63.92980 | 40.21327 | 22387 ft | 391 kts | 190° |
| 2026-04-22 10:02 | 63.90255 | 40.20859 | 22863 ft | 393 kts | 191° |
| 2026-04-22 10:02 | 63.87518 | 40.20400 | 23323 ft | 396 kts | 191° |
| 2026-04-22 10:02 | 63.84764 | 40.19951 | 23772 ft | 398 kts | 191° |
| 2026-04-22 10:03 | 63.81989 | 40.19511 | 24192 ft | 401 kts | 191° |
| 2026-04-22 10:03 | 63.79183 | 40.19073 | 24519 ft | 406 kts | 191° |
| 2026-04-22 10:03 | 63.76348 | 40.18617 | 24861 ft | 409 kts | 192° |
| 2026-04-22 10:03 | 63.73539 | 40.17679 | 25194 ft | 409 kts | 198° |
| 2026-04-22 10:04 | 63.70787 | 40.16090 | 25522 ft | 409 kts | 202° |
| 2026-04-22 10:04 | 63.68063 | 40.14161 | 25850 ft | 412 kts | 204° |
| 2026-04-22 10:04 | 63.65344 | 40.12070 | 26180 ft | 415 kts | 204° |
| 2026-04-22 10:04 | 63.62593 | 40.09961 | 26503 ft | 419 kts | 204° |
| 2026-04-22 10:05 | 63.59816 | 40.07848 | 26818 ft | 423 kts | 204° |
| 2026-04-22 10:05 | 63.57016 | 40.05720 | 27131 ft | 427 kts | 204° |
| 2026-04-22 10:05 | 63.54223 | 40.03606 | 27426 ft | 431 kts | 203° |
| 2026-04-22 10:05 | 63.51368 | 40.01447 | 27734 ft | 434 kts | 203° |
| 2026-04-22 10:06 | 63.48498 | 39.99282 | 27984 ft | 439 kts | 203° |
| 2026-04-22 10:06 | 63.45579 | 39.97079 | 28190 ft | 444 kts | 203° |
| 2026-04-22 10:06 | 63.42657 | 39.94808 | 28494 ft | 445 kts | 205° |
| 2026-04-22 10:06 | 63.39758 | 39.92320 | 28769 ft | 447 kts | 206° |
| 2026-04-22 10:07 | 63.36860 | 39.89745 | 29034 ft | 450 kts | 206° |
| 2026-04-22 10:07 | 63.33935 | 39.87174 | 29311 ft | 453 kts | 206° |
| 2026-04-22 10:07 | 63.30992 | 39.84613 | 29669 ft | 453 kts | 206° |
| 2026-04-22 10:07 | 63.28056 | 39.82077 | 30003 ft | 454 kts | 205° |
| 2026-04-22 10:08 | 63.25101 | 39.79536 | 30332 ft | 455 kts | 205° |
| 2026-04-22 10:08 | 63.22141 | 39.77002 | 30656 ft | 456 kts | 205° |
| 2026-04-22 10:08 | 63.19178 | 39.74474 | 30976 ft | 457 kts | 205° |
| 2026-04-22 10:08 | 63.16208 | 39.71948 | 31292 ft | 457 kts | 205° |
| 2026-04-22 10:09 | 63.13232 | 39.69423 | 31604 ft | 458 kts | 205° |
| 2026-04-22 10:09 | 63.10298 | 39.66881 | 31906 ft | 458 kts | 205° |
| 2026-04-22 10:09 | 63.07324 | 39.64306 | 32202 ft | 459 kts | 205° |
| 2026-04-22 10:09 | 63.04338 | 39.61745 | 32485 ft | 460 kts | 205° |
| 2026-04-22 10:10 | 63.01350 | 39.59198 | 32764 ft | 461 kts | 205° |
| 2026-04-22 10:10 | 62.98352 | 39.56654 | 33031 ft | 463 kts | 205° |
| 2026-04-22 10:10 | 62.95340 | 39.54109 | 33306 ft | 463 kts | 204° |
| 2026-04-22 10:10 | 62.92312 | 39.51558 | 33371 ft | 467 kts | 204° |
| 2026-04-22 10:11 | 62.86250 | 39.46472 | 33377 ft | 465 kts | 204° |
| 2026-04-22 10:11 | 62.80207 | 39.41427 | 33379 ft | 464 kts | 204° |
| 2026-04-22 10:12 | 62.74165 | 39.36406 | 33382 ft | 465 kts | 204° |
| 2026-04-22 10:12 | 62.68117 | 39.31401 | 33385 ft | 465 kts | 204° |
| 2026-04-22 10:13 | 62.62063 | 39.26413 | 33388 ft | 465 kts | 204° |
| 2026-04-22 10:13 | 62.56049 | 39.21479 | 33389 ft | 465 kts | 204° |
| 2026-04-22 10:14 | 62.49996 | 39.16535 | 33391 ft | 465 kts | 204° |
| 2026-04-22 10:14 | 62.43943 | 39.11613 | 33399 ft | 464 kts | 204° |
| 2026-04-22 10:15 | 62.37897 | 39.06717 | 33406 ft | 464 kts | 204° |
| 2026-04-22 10:15 | 62.31843 | 39.01834 | 33409 ft | 464 kts | 204° |
| 2026-04-22 10:16 | 62.25777 | 38.96964 | 33416 ft | 466 kts | 204° |
| 2026-04-22 10:16 | 62.19697 | 38.92055 | 33420 ft | 467 kts | 204° |
| 2026-04-22 10:17 | 62.13616 | 38.87188 | 33422 ft | 467 kts | 204° |
| 2026-04-22 10:17 | 62.07523 | 38.82379 | 33424 ft | 467 kts | 204° |
| 2026-04-22 10:18 | 62.01423 | 38.77589 | 33426 ft | 467 kts | 204° |
| 2026-04-22 10:18 | 61.95332 | 38.72821 | 33433 ft | 467 kts | 204° |
| 2026-04-22 10:19 | 61.89117 | 38.68840 | 33436 ft | 471 kts | 195° |
| 2026-04-22 10:19 | 61.82681 | 38.66171 | 33456 ft | 469 kts | 194° |
| 2026-04-22 10:20 | 61.76283 | 38.63474 | 33477 ft | 471 kts | 195° |
| 2026-04-22 10:20 | 61.69890 | 38.60780 | 33486 ft | 471 kts | 195° |
| 2026-04-22 10:21 | 61.63453 | 38.58081 | 33488 ft | 471 kts | 195° |
| 2026-04-22 10:21 | 61.57033 | 38.55397 | 33488 ft | 471 kts | 195° |
| 2026-04-22 10:22 | 61.50608 | 38.52663 | 33488 ft | 472 kts | 195° |
| 2026-04-22 10:22 | 61.44173 | 38.49981 | 33489 ft | 472 kts | 195° |
| 2026-04-22 10:23 | 61.37750 | 38.47330 | 33488 ft | 473 kts | 194° |
| 2026-04-22 10:23 | 61.31301 | 38.44683 | 33489 ft | 472 kts | 194° |
| 2026-04-22 10:24 | 61.24840 | 38.42037 | 33490 ft | 473 kts | 194° |
| 2026-04-22 10:24 | 61.18297 | 38.40186 | 33490 ft | 475 kts | 189° |
| 2026-04-22 10:25 | 61.11703 | 38.38957 | 33489 ft | 476 kts | 188° |
| 2026-04-22 10:25 | 61.05107 | 38.37634 | 33490 ft | 477 kts | 189° |
| 2026-04-22 10:26 | 60.98512 | 38.36272 | 33490 ft | 476 kts | 189° |
| 2026-04-22 10:26 | 60.91914 | 38.34897 | 33492 ft | 477 kts | 189° |
| 2026-04-22 10:27 | 60.85311 | 38.33501 | 33491 ft | 476 kts | 189° |
| 2026-04-22 10:27 | 60.78725 | 38.32114 | 33493 ft | 475 kts | 189° |
| 2026-04-22 10:28 | 60.72176 | 38.30750 | 33503 ft | 477 kts | 189° |
| 2026-04-22 10:28 | 60.65568 | 38.29380 | 33511 ft | 477 kts | 189° |
| 2026-04-22 10:29 | 60.58982 | 38.28015 | 33518 ft | 474 kts | 189° |
| 2026-04-22 10:29 | 60.52407 | 38.26654 | 33528 ft | 475 kts | 189° |
| 2026-04-22 10:30 | 60.45836 | 38.25309 | 33535 ft | 474 kts | 189° |
| 2026-04-22 10:30 | 60.39272 | 38.23975 | 33542 ft | 474 kts | 189° |
| 2026-04-22 10:31 | 60.32703 | 38.22647 | 33546 ft | 474 kts | 188° |
| 2026-04-22 10:31 | 60.26419 | 38.21379 | 33552 ft | 474 kts | 189° |
| 2026-04-22 10:32 | 60.19858 | 38.20057 | 33556 ft | 473 kts | 189° |
| 2026-04-22 10:32 | 60.13308 | 38.18738 | 33556 ft | 473 kts | 188° |
| 2026-04-22 10:33 | 60.06749 | 38.17401 | 33559 ft | 474 kts | 189° |
| 2026-04-22 10:33 | 60.00189 | 38.16088 | 33559 ft | 474 kts | 188° |
| 2026-04-22 10:34 | 59.94732 | 38.15006 | 33560 ft | 474 kts | 188° |
| 2026-04-22 10:34 | 59.88170 | 38.13708 | 33560 ft | 475 kts | 188° |
| 2026-04-22 10:35 | 59.81595 | 38.12408 | 33558 ft | 474 kts | 188° |
| 2026-04-22 10:35 | 59.75036 | 38.11112 | 33557 ft | 473 kts | 188° |
| 2026-04-22 10:36 | 59.68478 | 38.09824 | 33558 ft | 473 kts | 188° |
| 2026-04-22 10:36 | 59.61917 | 38.08549 | 33555 ft | 473 kts | 188° |
| 2026-04-22 10:37 | 59.52072 | 38.06620 | 33569 ft | 475 kts | 188° |
| 2026-04-22 10:38 | 59.45498 | 38.05354 | 33566 ft | 474 kts | 188° |
| 2026-04-22 10:38 | 59.38934 | 38.04095 | 33563 ft | 474 kts | 188° |
| 2026-04-22 10:39 | 59.32365 | 38.02840 | 33563 ft | 474 kts | 188° |
| 2026-04-22 10:39 | 59.25788 | 38.01602 | 33562 ft | 475 kts | 187° |
| 2026-04-22 10:40 | 59.19203 | 38.00553 | 33570 ft | 475 kts | 187° |
| 2026-04-22 10:40 | 59.12623 | 37.99475 | 33590 ft | 474 kts | 187° |
| 2026-04-22 10:41 | 59.06078 | 37.98414 | 33616 ft | 475 kts | 187° |
| 2026-04-22 10:41 | 58.99452 | 37.97344 | 33637 ft | 474 kts | 187° |
| 2026-04-22 10:42 | 58.92877 | 37.96287 | 33649 ft | 474 kts | 187° |
| 2026-04-22 10:42 | 58.86293 | 37.95232 | 33647 ft | 474 kts | 187° |
| 2026-04-22 10:43 | 58.79749 | 37.94186 | 33644 ft | 475 kts | 187° |
| 2026-04-22 10:43 | 58.73418 | 37.93184 | 33641 ft | 475 kts | 187° |
| 2026-04-22 10:44 | 58.66825 | 37.92148 | 33640 ft | 475 kts | 187° |
| 2026-04-22 10:44 | 58.60234 | 37.91261 | 33654 ft | 475 kts | 186° |
| 2026-04-22 10:45 | 58.53644 | 37.90379 | 33672 ft | 474 kts | 186° |
| 2026-04-22 10:45 | 58.47069 | 37.89497 | 33688 ft | 474 kts | 186° |
| 2026-04-22 10:46 | 58.40493 | 37.88616 | 33706 ft | 474 kts | 185° |
| 2026-04-22 10:46 | 58.33924 | 37.87736 | 33717 ft | 473 kts | 185° |
| 2026-04-22 10:47 | 58.27363 | 37.86846 | 33727 ft | 472 kts | 185° |
| 2026-04-22 10:47 | 58.20812 | 37.85967 | 33731 ft | 472 kts | 185° |
| 2026-04-22 10:48 | 58.14299 | 37.85098 | 33675 ft | 474 kts | 185° |
| 2026-04-22 10:48 | 58.10997 | 37.84655 | 33274 ft | 475 kts | 185° |
| 2026-04-22 10:48 | 58.07707 | 37.84220 | 32650 ft | 473 kts | 185° |
| 2026-04-22 10:48 | 58.04430 | 37.83788 | 32125 ft | 470 kts | 185° |
| 2026-04-22 10:49 | 58.01176 | 37.83359 | 31615 ft | 467 kts | 185° |
| 2026-04-22 10:49 | 57.97952 | 37.82937 | 31116 ft | 463 kts | 185° |
| 2026-04-22 10:49 | 57.94748 | 37.82518 | 30623 ft | 460 kts | 185° |
| 2026-04-22 10:49 | 57.91565 | 37.82102 | 30136 ft | 457 kts | 185° |
| 2026-04-22 10:50 | 57.88398 | 37.81689 | 29655 ft | 454 kts | 185° |
| 2026-04-22 10:50 | 57.85255 | 37.81280 | 29182 ft | 452 kts | 185° |
| 2026-04-22 10:50 | 57.82129 | 37.80872 | 28712 ft | 449 kts | 185° |
| 2026-04-22 10:50 | 57.79019 | 37.80430 | 28240 ft | 447 kts | 186° |
| 2026-04-22 10:51 | 57.75930 | 37.79978 | 27770 ft | 445 kts | 186° |
| 2026-04-22 10:51 | 57.72849 | 37.79533 | 27299 ft | 442 kts | 185° |
| 2026-04-22 10:51 | 57.69790 | 37.79097 | 26831 ft | 440 kts | 185° |
| 2026-04-22 10:51 | 57.66746 | 37.78663 | 26367 ft | 437 kts | 185° |
| 2026-04-22 10:52 | 57.63721 | 37.78235 | 25903 ft | 435 kts | 185° |
| 2026-04-22 10:52 | 57.60705 | 37.77810 | 25439 ft | 433 kts | 185° |
| 2026-04-22 10:52 | 57.57714 | 37.77388 | 24978 ft | 430 kts | 185° |
| 2026-04-22 10:52 | 57.54733 | 37.76968 | 24516 ft | 428 kts | 185° |
| 2026-04-22 10:53 | 57.51774 | 37.76552 | 24056 ft | 425 kts | 185° |
| 2026-04-22 10:53 | 57.48829 | 37.76137 | 23597 ft | 423 kts | 184° |
| 2026-04-22 10:53 | 57.45912 | 37.75730 | 23146 ft | 420 kts | 184° |
| 2026-04-22 10:53 | 57.43002 | 37.75353 | 22692 ft | 417 kts | 184° |
| 2026-04-22 10:54 | 57.40115 | 37.74972 | 22239 ft | 414 kts | 184° |
| 2026-04-22 10:54 | 57.37250 | 37.74599 | 21787 ft | 412 kts | 184° |
| 2026-04-22 10:54 | 57.34401 | 37.74229 | 21334 ft | 409 kts | 184° |
| 2026-04-22 10:54 | 57.31572 | 37.73864 | 20881 ft | 406 kts | 184° |
| 2026-04-22 10:55 | 57.28760 | 37.73501 | 20431 ft | 404 kts | 184° |
| 2026-04-22 10:55 | 57.26274 | 37.73181 | 20033 ft | 401 kts | 183° |
| 2026-04-22 10:55 | 57.23499 | 37.72825 | 19591 ft | 398 kts | 183° |
| 2026-04-22 10:55 | 57.20741 | 37.72471 | 19151 ft | 396 kts | 183° |
| 2026-04-22 10:56 | 57.18007 | 37.72120 | 18716 ft | 393 kts | 183° |
| 2026-04-22 10:56 | 57.15326 | 37.71777 | 18293 ft | 390 kts | 184° |
| 2026-04-22 10:56 | 57.12628 | 37.71337 | 17874 ft | 387 kts | 187° |
| 2026-04-22 10:56 | 57.10015 | 37.70386 | 17633 ft | 379 kts | 194° |
| 2026-04-22 10:57 | 57.07517 | 37.68940 | 17258 ft | 375 kts | 200° |
| 2026-04-22 10:57 | 57.05096 | 37.67186 | 16880 ft | 372 kts | 204° |
| 2026-04-22 10:57 | 57.02729 | 37.65349 | 16502 ft | 369 kts | 204° |
| 2026-04-22 10:57 | 57.00369 | 37.63547 | 16127 ft | 366 kts | 204° |
| 2026-04-22 10:58 | 56.98024 | 37.61782 | 15753 ft | 363 kts | 203° |
| 2026-04-22 10:58 | 56.95691 | 37.60018 | 15379 ft | 361 kts | 204° |
| 2026-04-22 10:58 | 56.93380 | 37.58262 | 15010 ft | 358 kts | 204° |
| 2026-04-22 10:58 | 56.91082 | 37.56542 | 14642 ft | 356 kts | 204° |
| 2026-04-22 10:59 | 56.88795 | 37.54849 | 14276 ft | 353 kts | 203° |
| 2026-04-22 10:59 | 56.86523 | 37.53177 | 13916 ft | 350 kts | 203° |
| 2026-04-22 10:59 | 56.84270 | 37.51524 | 13555 ft | 347 kts | 203° |
| 2026-04-22 10:59 | 56.82035 | 37.49888 | 13199 ft | 344 kts | 203° |
| 2026-04-22 11:00 | 56.79820 | 37.48270 | 12849 ft | 341 kts | 203° |
| 2026-04-22 11:00 | 56.77625 | 37.46667 | 12499 ft | 338 kts | 203° |
| 2026-04-22 11:00 | 56.75450 | 37.45082 | 12152 ft | 335 kts | 203° |
| 2026-04-22 11:00 | 56.73294 | 37.43511 | 11809 ft | 332 kts | 203° |
| 2026-04-22 11:01 | 56.71164 | 37.41960 | 11470 ft | 329 kts | 203° |
| 2026-04-22 11:01 | 56.69059 | 37.40428 | 11283 ft | 321 kts | 203° |
| 2026-04-22 11:01 | 56.67029 | 37.38950 | 11032 ft | 316 kts | 204° |
| 2026-04-22 11:01 | 56.64986 | 37.37418 | 10765 ft | 311 kts | 205° |
| 2026-04-22 11:02 | 56.63027 | 37.35918 | 10463 ft | 309 kts | 204° |
| 2026-04-22 11:02 | 56.61049 | 37.34415 | 10158 ft | 306 kts | 204° |
| 2026-04-22 11:02 | 56.59128 | 37.32962 | 9916 ft | 290 kts | 204° |
| 2026-04-22 11:02 | 56.57297 | 37.31581 | 9711 ft | 284 kts | 204° |
| 2026-04-22 11:03 | 56.55459 | 37.30196 | 9331 ft | 286 kts | 204° |
| 2026-04-22 11:03 | 56.53631 | 37.28817 | 9095 ft | 282 kts | 204° |
| 2026-04-22 11:03 | 56.51817 | 37.27502 | 8899 ft | 279 kts | 202° |
| 2026-04-22 11:03 | 56.50015 | 37.26278 | 8734 ft | 275 kts | 202° |
| 2026-04-22 11:04 | 56.48234 | 37.25060 | 8578 ft | 273 kts | 202° |
| 2026-04-22 11:04 | 56.46458 | 37.23838 | 8422 ft | 273 kts | 202° |
| 2026-04-22 11:04 | 56.44682 | 37.22707 | 8266 ft | 273 kts | 195° |
| 2026-04-22 11:04 | 56.42777 | 37.22371 | 8116 ft | 274 kts | 180° |
| 2026-04-22 11:05 | 56.40879 | 37.22748 | 7962 ft | 274 kts | 171° |
| 2026-04-22 11:05 | 56.39019 | 37.23495 | 7820 ft | 272 kts | 167° |
| 2026-04-22 11:05 | 56.37218 | 37.24321 | 7746 ft | 263 kts | 167° |
| 2026-04-22 11:05 | 56.35469 | 37.25078 | 7675 ft | 253 kts | 168° |
| 2026-04-22 11:06 | 56.33788 | 37.25772 | 7600 ft | 244 kts | 168° |
| 2026-04-22 11:06 | 56.32149 | 37.26435 | 7427 ft | 239 kts | 168° |
| 2026-04-22 11:06 | 56.30532 | 37.27082 | 7197 ft | 237 kts | 168° |
| 2026-04-22 11:06 | 56.28924 | 37.27721 | 6964 ft | 236 kts | 169° |
| 2026-04-22 11:07 | 56.27326 | 37.28357 | 6719 ft | 235 kts | 169° |
| 2026-04-22 11:07 | 56.25736 | 37.28989 | 6476 ft | 233 kts | 169° |
| 2026-04-22 11:07 | 56.24159 | 37.29657 | 6232 ft | 233 kts | 166° |
| 2026-04-22 11:07 | 56.22623 | 37.30432 | 5991 ft | 232 kts | 165° |
| 2026-04-22 11:08 | 56.21076 | 37.31232 | 5870 ft | 237 kts | 165° |
| 2026-04-22 11:08 | 56.19446 | 37.32052 | 5864 ft | 245 kts | 166° |
| 2026-04-22 11:08 | 56.17799 | 37.33011 | 5859 ft | 252 kts | 154° |
| 2026-04-22 11:08 | 56.16525 | 37.35128 | 5834 ft | 253 kts | 120° |
| 2026-04-22 11:09 | 56.16142 | 37.38146 | 5699 ft | 250 kts | 84° |
| 2026-04-22 11:09 | 56.16654 | 37.41071 | 5589 ft | 244 kts | 64° |
| 2026-04-22 11:09 | 56.17373 | 37.43800 | 5471 ft | 237 kts | 65° |
| 2026-04-22 11:09 | 56.17939 | 37.46523 | 5327 ft | 229 kts | 71° |
| 2026-04-22 11:10 | 56.18364 | 37.49229 | 5188 ft | 221 kts | 73° |
| 2026-04-22 11:10 | 56.18743 | 37.51852 | 5059 ft | 213 kts | 73° |
| 2026-04-22 11:10 | 56.19115 | 37.54398 | 4940 ft | 209 kts | 74° |
| 2026-04-22 11:10 | 56.19428 | 37.56921 | 4816 ft | 207 kts | 84° |
| 2026-04-22 11:11 | 56.19105 | 37.59415 | 4703 ft | 208 kts | 115° |
| 2026-04-22 11:11 | 56.18290 | 37.61559 | 4596 ft | 209 kts | 129° |
| 2026-04-22 11:11 | 56.17321 | 37.63442 | 4474 ft | 208 kts | 134° |
| 2026-04-22 11:11 | 56.16285 | 37.65254 | 4353 ft | 208 kts | 136° |
| 2026-04-22 11:12 | 56.15256 | 37.67063 | 4234 ft | 207 kts | 135° |
| 2026-04-22 11:12 | 56.14237 | 37.68890 | 4117 ft | 207 kts | 135° |
| 2026-04-22 11:12 | 56.13223 | 37.70725 | 4002 ft | 207 kts | 135° |
| 2026-04-22 11:12 | 56.12216 | 37.72557 | 3887 ft | 206 kts | 135° |
| 2026-04-22 11:13 | 56.11209 | 37.74392 | 3773 ft | 206 kts | 135° |
| 2026-04-22 11:13 | 56.10196 | 37.76204 | 3656 ft | 206 kts | 139° |
| 2026-04-22 11:13 | 56.08944 | 37.77250 | 3526 ft | 195 kts | 174° |
| 2026-04-22 11:13 | 56.07637 | 37.77016 | 3442 ft | 185 kts | 194° |
| 2026-04-22 11:14 | 56.06424 | 37.76353 | 3329 ft | 180 kts | 200° |
| 2026-04-22 11:14 | 56.05248 | 37.75638 | 3220 ft | 177 kts | 200° |
| 2026-04-22 11:14 | 56.04078 | 37.74926 | 3120 ft | 177 kts | 201° |
| 2026-04-22 11:14 | 56.02929 | 37.74208 | 3018 ft | 174 kts | 205° |
| 2026-04-22 11:15 | 56.02047 | 37.72837 | 2899 ft | 169 kts | 242° |
| 2026-04-22 11:15 | 56.01600 | 37.70928 | 2861 ft | 164 kts | 252° |
| 2026-04-22 11:15 | 56.01275 | 37.68989 | 2767 ft | 160 kts | 256° |
| 2026-04-22 11:15 | 56.00990 | 37.67108 | 2663 ft | 155 kts | 256° |
| 2026-04-22 11:16 | 56.00712 | 37.65269 | 2566 ft | 151 kts | 256° |
| 2026-04-22 11:16 | 56.00425 | 37.63474 | 2476 ft | 151 kts | 256° |
| 2026-04-22 11:16 | 56.00150 | 37.61671 | 2301 ft | 150 kts | 257° |
| 2026-04-22 11:16 | 55.99895 | 37.59869 | 2132 ft | 150 kts | 257° |
| 2026-04-22 11:17 | 55.99644 | 37.58092 | 1975 ft | 149 kts | 256° |
| 2026-04-22 11:17 | 55.99369 | 37.56307 | 1801 ft | 148 kts | 254° |
| 2026-04-22 11:17 | 55.99073 | 37.54552 | 1637 ft | 146 kts | 252° |
| 2026-04-22 11:17 | 55.98771 | 37.52847 | 1532 ft | 143 kts | 256° |
| 2026-04-22 11:18 | 55.98565 | 37.51085 | 1354 ft | 146 kts | 258° |
| 2026-04-22 11:18 | 55.98320 | 37.49339 | 1191 ft | 144 kts | 255° |
| 2026-04-22 11:18 | 55.98056 | 37.47603 | 989 ft | 145 kts | 255° |
| 2026-04-22 11:18 | 55.97801 | 37.45871 | 826 ft | 143 kts | 255° |
| 2026-04-22 11:19 | 55.97544 | 37.44166 | 663 ft | 141 kts | 255° |
| 2026-04-22 11:19 | 55.97302 | 37.42607 | 639 ft | 116 kts | 257° |
| 2026-04-22 11:19 | 55.97156 | 37.41598 | 638 ft | 51 kts | 255° |
| 2026-04-22 11:19 | 55.97156 | 37.41358 | 638 ft | 15 kts | 324° |
| 2026-04-22 11:20 | 55.97251 | 37.41304 | 638 ft | 14 kts | 345° |
| 2026-04-22 11:20 | 55.97313 | 37.41275 | 638 ft | 13 kts | 345° |
| 2026-04-22 11:20 | 55.97428 | 37.41221 | 638 ft | 13 kts | 345° |
| 2026-04-22 11:20 | 55.97505 | 37.41185 | 638 ft | 8 kts | 347° |
| 2026-04-22 11:21 | 55.97539 | 37.41168 | 638 ft | 9 kts | 345° |
| 2026-04-22 11:21 | 55.97621 | 37.41123 | 638 ft | 9 kts | 333° |
| 2026-04-22 11:21 | 55.97641 | 37.41063 | 638 ft | 9 kts | 268° |
| 2026-04-22 11:21 | 55.97633 | 37.40999 | 638 ft | 0 kts | 263° |
| 2026-04-22 11:22 | 55.97641 | 37.40977 | 638 ft | 6 kts | 320° |
| 2026-04-22 11:22 | 55.97704 | 37.40933 | 638 ft | 10 kts | 345° |
| 2026-04-22 11:22 | 55.97752 | 37.40911 | 638 ft | 7 kts | 345° |
| 2026-04-22 11:22 | 55.97794 | 37.40881 | 638 ft | 7 kts | 303° |
| 2026-04-22 11:23 | 55.97770 | 37.40833 | 638 ft | 7 kts | 183° |
| 2026-04-22 11:23 | 55.97736 | 37.40787 | 638 ft | 6 kts | 248° |
| 2026-04-22 11:23 | 55.97723 | 37.40712 | 638 ft | 6 kts | 253° |
| 2026-04-22 11:23 | 55.97712 | 37.40638 | 638 ft | 6 kts | 262° |
| 2026-04-22 11:24 | 55.97716 | 37.40564 | 638 ft | 6 kts | 271° |
| 2026-04-22 11:24 | 55.97709 | 37.40479 | 638 ft | 2 kts | 249° |
| 2026-04-22 11:24 | 55.97689 | 37.40467 | 638 ft | 5 kts | 173° |
| 2026-04-22 11:24 | 55.97657 | 37.40481 | 638 ft | 5 kts | 163° |
| 2026-04-22 11:25 | 55.97637 | 37.40491 | 638 ft | 0 kts | 165° |